Time;durP1;ratioP1;P1;durP2;ratioP2;P2;SDS_P1;SDS_P2;PMS_P1;PMS_P2;Temp;Humidity;BMP_temperature;BMP_pressure;BME280_temperature;BME280_humidity;BME280_pressure;Samples;Min_cycle;Max_cycle;Signal;HPM_P1;HPM_P2
2024/04/11 00:02:03;;;;;;;;;;;;;;;-144.99;91.79;52462.34;5377445;26;19957;-68
2024/04/11 00:04:29;;;;;;;;;;;;;;;-144.99;91.50;52456.25;5373381;26;19968;-66
2024/04/11 00:06:58;;;;;;;;;;;;;;;-144.99;91.18;52448.09;5376972;26;20357;-59
2024/04/11 00:09:24;;;;;;;;;;;;;;;-144.99;91.59;52456.25;5377398;26;19998;-64
2024/04/11 00:11:52;;;;;;;;;;;;;;;-144.99;90.90;52472.56;5376651;26;19929;-68
2024/04/11 00:14:24;;;;;;;;;;;;;;;-144.99;90.78;52468.47;5377183;26;19937;-71
2024/04/11 00:16:50;;;;;;;;;;;;;;;-144.99;90.65;52439.94;5377189;26;19936;-69
2024/04/11 00:19:18;;;;;;;;;;;;;;;-144.99;89.97;52452.16;5376781;26;20263;-69
2024/04/11 00:21:44;;;;;;;;;;;;;;;-144.99;89.83;52411.41;5376918;26;19929;-70
2024/04/11 00:24:13;;;;;;;;;;;;;;;-144.99;90.09;52452.16;5377120;26;20049;-71
2024/04/11 00:26:39;;;;;;;;;;;;;;;-144.99;89.83;52458.28;5377337;26;19933;-72
2024/04/11 00:29:10;;;;;;;;;;;;;;;-144.99;90.12;52478.66;5376728;26;19930;-73
2024/04/11 00:31:39;;;;;;;;;;;;;;;-144.99;89.72;52452.16;5377977;26;20513;-72
2024/04/11 00:34:16;;;;;;;;;;;;;;;-144.99;89.02;52480.72;5376847;26;20384;-71
2024/04/11 00:36:42;;;;;;;;;;;;;;;-144.99;88.44;52415.47;5379387;26;20224;-69
2024/04/11 00:39:16;;;;;;;;;;;;;;;-144.99;88.30;52437.91;5377464;26;19956;-68
2024/04/11 00:41:42;;;;;;;;;;;;;;;-144.99;88.33;52509.25;5376987;26;19965;-67
2024/04/11 00:44:10;;;;;;;;;;;;;;;-144.99;88.48;52419.56;5377253;26;20375;-69
2024/04/11 00:46:39;;;;;;;;;;;;;;;-144.99;88.05;52435.88;5376568;26;19929;-69
2024/04/11 00:49:09;;;;;;;;;;;;;;;-144.99;87.78;52439.94;5376476;26;19989;-66
2024/04/11 00:51:35;;;;;;;;;;;;;;;-144.99;87.30;52444.03;5376984;26;19929;-65
2024/04/11 00:54:03;;;;;;;;;;;;;;;-144.99;87.84;52462.34;5376697;26;20259;-63
2024/04/11 00:56:29;;;;;;;;;;;;;;;-144.99;87.29;52460.31;5373218;26;20150;-70
2024/04/11 00:58:58;;;;;;;;;;;;;;;-144.99;86.94;52448.09;5376064;26;20259;-69
2024/04/11 01:01:25;;;;;;;;;;;;;;;-144.99;86.72;52456.25;5376538;26;19933;-68
2024/04/11 01:03:59;;;;;;;;;;;;;;;-144.99;86.84;52456.25;5376480;26;19933;-69
2024/04/11 01:06:25;;;;;;;;;;;;;;;-144.99;86.79;52482.75;5376621;26;19929;-67
2024/04/11 01:08:53;;;;;;;;;;;;;;;-144.99;85.84;52409.38;5376430;26;19937;-66
2024/04/11 01:11:19;;;;;;;;;;;;;;;-144.99;86.16;52448.09;5375120;26;19937;-67
2024/04/11 01:13:48;;;;;;;;;;;;;;;-144.99;86.45;52456.25;5376552;26;19941;-67
2024/04/11 01:16:14;;;;;;;;;;;;;;;-144.99;85.76;52419.56;5377267;26;19958;-67
2024/04/11 01:18:43;;;;;;;;;;;;;;;-144.99;85.95;52435.88;5376501;26;19930;-68
2024/04/11 01:21:15;;;;;;;;;;;;;;;-144.99;86.24;52417.53;5376883;26;19937;-65
2024/04/11 01:23:46;;;;;;;;;;;;;;;-144.99;85.46;52468.47;5376496;26;19936;-67
2024/04/11 01:26:13;;;;;;;;;;;;;;;-144.99;85.74;52419.56;5376650;26;20259;-67
2024/04/11 01:28:41;;;;;;;;;;;;;;;-144.99;85.30;52439.94;5375262;26;19945;-67
2024/04/11 01:31:07;;;;;;;;;;;;;;;-144.99;84.63;52454.22;5376157;26;19930;-66
2024/04/11 01:33:38;;;;;;;;;;;;;;;-144.99;84.56;52439.94;5375638;26;19941;-67
2024/04/11 01:36:04;;;;;;;;;;;;;;;-144.99;84.56;52448.09;5376078;26;19937;-70
2024/04/11 01:38:32;;;;;;;;;;;;;;;-144.99;83.91;52444.03;5376733;26;19933;-70
2024/04/11 01:41:01;;;;;;;;;;;;;;;-144.99;84.11;52431.78;5376099;26;19929;-69
2024/04/11 01:43:29;;;;;;;;;;;;;;;-144.99;83.35;52462.34;5375759;26;19936;-68
2024/04/11 01:45:55;;;;;;;;;;;;;;;-144.99;83.36;52431.78;5376754;26;19930;-69
2024/04/11 01:48:24;;;;;;;;;;;;;;;-144.99;83.80;52427.72;5371257;26;21337;-69
2024/04/11 01:50:52;;;;;;;;;;;;;;;-144.99;83.48;52417.53;5374123;26;19969;-68
2024/04/11 01:53:20;;;;;;;;;;;;;;;-144.99;82.99;52415.47;5381090;26;19937;-69
2024/04/11 01:55:47;;;;;;;;;;;;;;;-144.99;82.28;52427.72;5377115;26;20560;-69
2024/04/11 01:58:19;;;;;;;;;;;;;;;-144.99;81.98;52407.31;5375118;26;19929;-67
2024/04/11 02:00:45;;;;;;;;;;;;;;;-144.99;81.74;52419.56;5375984;26;19930;-67
2024/04/11 02:03:14;;;;;;;;;;;;;;;-144.99;82.05;52423.63;5375391;26;19981;-67
2024/04/11 02:05:41;;;;;;;;;;;;;;;-144.99;81.28;52492.94;5374568;26;20318;-65
2024/04/11 02:08:09;;;;;;;;;;;;;;;-144.99;81.59;52427.72;5375599;26;19936;-66
2024/04/11 02:10:35;;;;;;;;;;;;;;;-144.99;81.24;52460.31;5375971;26;19930;-66
2024/04/11 02:13:04;;;;;;;;;;;;;;;-144.99;81.07;52460.31;5375608;26;20007;-69
2024/04/11 02:15:35;;;;;;;;;;;;;;;-144.99;80.77;52450.13;5367770;26;20265;-67
2024/04/11 02:18:06;;;;;;;;;;;;;;;-144.99;80.69;52456.25;5375506;26;19934;-67
2024/04/11 02:20:32;;;;;;;;;;;;;;;-144.99;81.28;52468.47;5375937;26;19940;-66
2024/04/11 02:23:01;;;;;;;;;;;;;;;-144.99;80.84;52446.06;5375575;26;20375;-66
2024/04/11 02:25:27;;;;;;;;;;;;;;;-144.99;80.97;52427.72;5367647;26;19930;-67
2024/04/11 02:27:55;;;;;;;;;;;;;;;-144.99;81.13;52407.31;5374815;26;19937;-67
2024/04/11 02:30:21;;;;;;;;;;;;;;;-144.99;80.71;52407.31;5375408;26;20511;-65
2024/04/11 02:32:52;;;;;;;;;;;;;;;-144.99;80.50;52417.53;5375665;26;19946;-67
2024/04/11 02:35:18;;;;;;;;;;;;;;;-144.99;80.34;52419.56;5376129;26;19936;-67
2024/04/11 02:37:47;;;;;;;;;;;;;;;-144.99;80.03;52456.25;5375114;26;20450;-68
2024/04/11 02:40:13;;;;;;;;;;;;;;;-144.99;79.65;52429.75;5375264;26;19929;-71
2024/04/11 02:42:42;;;;;;;;;;;;;;;-144.99;79.61;52435.88;5375444;26;20334;-70
2024/04/11 02:45:08;;;;;;;;;;;;;;;-144.99;79.30;52448.09;5375342;26;19930;-72
2024/04/11 02:47:38;;;;;;;;;;;;;;;-144.99;79.06;52452.16;5376275;26;19987;-70
2024/04/11 02:50:09;;;;;;;;;;;;;;;-144.99;78.73;52431.78;5378562;26;19929;-70
2024/04/11 02:52:40;;;;;;;;;;;;;;;-144.99;78.88;52423.63;5375703;26;20288;-73
2024/04/11 02:55:08;;;;;;;;;;;;;;;-144.99;78.24;52435.88;5374797;26;19940;-61
2024/04/11 02:57:36;;;;;;;;;;;;;;;-144.99;78.13;52437.91;5374514;26;19930;-67
2024/04/11 03:00:03;;;;;;;;;;;;;;;-144.99;77.78;52427.72;5369189;26;19936;-67
2024/04/11 03:02:34;;;;;;;;;;;;;;;-144.99;77.50;52421.59;5375174;26;19943;-68
2024/04/11 03:05:00;;;;;;;;;;;;;;;-144.99;77.23;52425.66;5375312;26;19944;-67
2024/04/11 03:07:32;;;;;;;;;;;;;;;-144.99;77.25;52444.03;5375300;26;19929;-67
2024/04/11 03:09:58;;;;;;;;;;;;;;;-144.99;76.35;52431.78;5375600;26;19930;-67
2024/04/11 03:12:26;;;;;;;;;;;;;;;-144.99;75.74;52435.88;5374839;26;20376;-67
2024/04/11 03:14:52;;;;;;;;;;;;;;;-144.99;75.83;52439.94;5375318;26;20312;-66
2024/04/11 03:17:21;;;;;;;;;;;;;;;-144.99;75.78;52435.88;5375749;26;19999;-67
2024/04/11 03:19:46;;;;;;;;;;;;;;;-144.99;75.42;52427.72;5377582;26;20721;-66
2024/04/11 03:22:15;;;;;;;;;;;;;;;-144.99;75.02;52446.06;5377399;26;19936;-67
2024/04/11 03:24:44;;;;;;;;;;;;;;;-144.99;75.21;52423.63;5377805;26;20266;-64
2024/04/11 03:27:13;;;;;;;;;;;;;;;-144.99;76.29;52415.47;5377480;26;19937;-73
2024/04/11 03:29:41;;;;;;;;;;;;;;;-144.99;74.46;52423.63;5378651;26;19977;-73
2024/04/11 03:32:09;;;;;;;;;;;;;;;-144.99;74.29;52448.09;5378760;26;19930;-74
2024/04/11 03:34:36;;;;;;;;;;;;;;;-144.99;73.93;52460.31;5378081;26;19941;-74
2024/04/11 03:37:05;;;;;;;;;;;;;;;-144.99;74.22;52431.78;5377937;26;20269;-76
2024/04/11 03:39:31;;;;;;;;;;;;;;;-144.99;73.74;52435.88;5377888;26;19941;-74
2024/04/11 03:42:02;;;;;;;;;;;;;;;-144.99;73.18;52423.63;5380560;26;19999;-76
2024/04/11 03:44:31;;;;;;;;;;;;;;;-144.99;72.50;52417.53;5371839;26;19933;-75
2024/04/11 03:47:00;;;;;;;;;;;;;;;-144.99;71.90;52484.78;5386118;26;19930;-76
2024/04/11 03:49:29;;;;;;;;;;;;;;;-144.99;71.74;52439.94;5380572;26;19930;-76
2024/04/11 03:51:55;;;;;;;;;;;;;;;-144.99;71.27;52431.78;5379349;26;19980;-77
2024/04/11 03:54:24;;;;;;;;;;;;;;;-144.99;71.97;52413.44;5381211;26;19941;-76
2024/04/11 03:56:51;;;;;;;;;;;;;;;-144.99;70.71;52460.31;5383177;26;19937;-77
2024/04/11 03:59:22;;;;;;;;;;;;;;;-144.99;70.09;52431.78;5380321;26;19999;-77
2024/04/11 04:01:48;;;;;;;;;;;;;;;-144.99;70.16;52431.78;5378452;26;19937;-76
2024/04/11 04:04:19;;;;;;;;;;;;;;;-144.99;70.32;52419.56;5378317;26;20342;-77
2024/04/11 04:06:46;;;;;;;;;;;;;;;-144.99;69.73;52403.25;5377762;26;20272;-77
2024/04/11 04:09:15;;;;;;;;;;;;;;;-144.99;70.02;52411.41;5377686;26;20480;-78
2024/04/11 04:11:41;;;;;;;;;;;;;;;-144.99;69.90;52431.78;5377122;26;19937;-65
2024/04/11 04:14:12;;;;;;;;;;;;;;;-144.99;69.94;52427.72;5376467;26;19930;-65
2024/04/11 04:16:41;;;;;;;;;;;;;;;-144.99;69.74;52444.03;5376450;26;19936;-67
2024/04/11 04:19:09;;;;;;;;;;;;;;;-144.99;69.32;52448.09;5371767;26;19958;-67
2024/04/11 04:21:35;;;;;;;;;;;;;;;-144.99;69.66;52456.25;5376414;26;19934;-67
2024/04/11 04:24:05;;;;;;;;;;;;;;;-144.99;69.54;52403.25;5376797;26;19979;-67
2024/04/11 04:26:39;;;;;;;;;;;;;;;-144.99;69.73;52391.03;5383655;26;19930;-66
2024/04/11 04:29:17;;;;;;;;;;;;;;;-144.99;69.34;52444.03;5384695;26;19930;-66
2024/04/11 04:31:47;;;;;;;;;;;;;;;-144.99;69.75;52403.25;5396486;26;19937;-68
2024/04/11 04:34:15;;;;;;;;;;;;;;;-144.99;69.68;52407.31;5377113;26;19944;-66
2024/04/11 04:36:41;;;;;;;;;;;;;;;-144.99;69.57;52460.31;5398863;26;19929;-67
2024/04/11 04:39:13;;;;;;;;;;;;;;;-144.99;70.22;52482.75;5377967;26;19999;-67
2024/04/11 04:41:39;;;;;;;;;;;;;;;-144.99;70.00;52448.09;5392871;26;19945;-69
2024/04/11 04:44:08;;;;;;;;;;;;;;;-144.99;70.11;52425.66;5385392;26;19929;-71
2024/04/11 04:46:34;;;;;;;;;;;;;;;-144.99;70.21;52423.63;5378285;26;19930;-70
2024/04/11 04:49:09;;;;;;;;;;;;;;;-144.99;70.52;52421.59;5390415;26;19933;-72
2024/04/11 04:51:36;;;;;;;;;;;;;;;-144.99;70.11;52439.94;5367227;21;19930;-68
2024/04/11 04:54:05;;;;;;;;;;;;;;;-144.99;70.28;52452.16;5340154;26;20306;-68
2024/04/11 04:56:32;;;;;;;;;;;;;;;-144.99;70.58;52419.56;5339115;26;19937;-68
2024/04/11 04:59:02;;;;;;;;;;;;;;;-144.99;70.57;52395.09;5339485;26;19936;-68
2024/04/11 05:01:30;;;;;;;;;;;;;;;-144.99;70.58;52448.09;5338858;26;19937;-68
2024/04/11 05:03:59;;;;;;;;;;;;;;;-144.99;70.66;52480.72;5339944;26;19934;-67
2024/04/11 05:06:29;;;;;;;;;;;;;;;-144.99;70.85;52448.09;5340040;26;20320;-69
2024/04/11 05:08:58;;;;;;;;;;;;;;;-144.99;70.82;52460.31;5340367;26;19934;-69
2024/04/11 05:11:31;;;;;;;;;;;;;;;-144.99;71.51;52435.88;5339833;26;20260;-68
2024/04/11 05:14:07;;;;;;;;;;;;;;;-144.99;71.76;52437.91;5340721;26;19937;-68
2024/04/11 05:16:34;;;;;;;;;;;;;;;-144.99;71.81;52444.03;5341103;26;19942;-67
2024/04/11 05:19:04;;;;;;;;;;;;;;;-144.99;71.45;52423.63;5340772;26;20328;-69
2024/04/11 05:21:32;;;;;;;;;;;;;;;-144.99;71.57;52448.09;5326921;26;19954;-68
2024/04/11 05:24:01;;;;;;;;;;;;;;;-144.99;71.68;52454.22;5340023;26;19978;-68
2024/04/11 05:26:28;;;;;;;;;;;;;;;-144.99;71.47;52419.56;5340677;26;19930;-68
2024/04/11 05:28:57;;;;;;;;;;;;;;;-144.99;71.67;52431.78;5340342;26;19957;-68
2024/04/11 05:31:25;;;;;;;;;;;;;;;-144.99;71.97;52423.63;5340202;26;19937;-69
2024/04/11 05:33:55;;;;;;;;;;;;;;;-144.99;72.28;52441.97;5340142;26;20198;-68
2024/04/11 05:36:25;;;;;;;;;;;;;;;-144.99;72.44;52444.03;5339642;26;19937;-68
2024/04/11 05:38:56;;;;;;;;;;;;;;;-144.99;72.42;52415.47;5339965;26;19938;-68
2024/04/11 05:41:22;;;;;;;;;;;;;;;-144.99;73.04;52450.13;5338531;26;19941;-69
2024/04/11 05:43:50;;;;;;;;;;;;;;;-144.99;73.10;52435.88;5330772;26;19934;-68
2024/04/11 05:46:18;;;;;;;;;;;;;;;-144.99;73.64;52419.56;5340790;26;19945;-68
2024/04/11 05:48:47;;;;;;;;;;;;;;;-144.99;73.71;52458.28;5340444;26;19930;-68
2024/04/11 05:51:14;;;;;;;;;;;;;;;-144.99;73.88;52431.78;5340002;26;19937;-68
2024/04/11 05:53:42;;;;;;;;;;;;;;;-144.99;73.35;52425.66;5340621;26;19937;-69
2024/04/11 05:56:12;;;;;;;;;;;;;;;-144.99;73.95;52395.09;5340302;26;20011;-69
2024/04/11 05:58:42;;;;;;;;;;;;;;;-144.99;73.38;52444.03;5340073;26;20000;-68
2024/04/11 06:01:09;;;;;;;;;;;;;;;-144.99;73.42;52419.56;5340148;26;19950;-68
2024/04/11 06:03:40;;;;;;;;;;;;;;;-144.99;73.22;52431.78;5340916;26;19934;-68
2024/04/11 06:06:06;;;;;;;;;;;;;;;-144.99;73.08;52435.88;5341847;26;20124;-68
2024/04/11 06:08:34;;;;;;;;;;;;;;;-144.99;73.62;52429.75;5341085;26;20248;-68
2024/04/11 06:11:00;;;;;;;;;;;;;;;-144.99;73.43;52454.22;5341379;26;19937;-69
2024/04/11 06:13:31;;;;;;;;;;;;;;;-144.99;73.51;52435.88;5340694;26;20226;-69
2024/04/11 06:15:59;;;;;;;;;;;;;;;-144.99;73.66;52448.09;5339823;26;19976;-69
2024/04/11 06:18:28;;;;;;;;;;;;;;;-144.99;73.99;52472.56;5339840;26;19930;-69
2024/04/11 06:20:54;;;;;;;;;;;;;;;-144.99;73.95;52423.63;5339271;26;20253;-70
2024/04/11 06:23:25;;;;;;;;;;;;;;;-144.99;74.16;52446.06;5339544;26;19930;-70
2024/04/11 06:25:51;;;;;;;;;;;;;;;-144.99;74.44;52456.25;5339706;26;19937;-69
2024/04/11 06:28:20;;;;;;;;;;;;;;;-144.99;75.62;52439.94;5339593;26;19934;-69
2024/04/11 06:30:49;;;;;;;;;;;;;;;-144.99;77.47;52444.03;5340464;26;19930;-70
2024/04/11 06:33:21;;;;;;;;;;;;;;;-144.99;79.60;52413.44;5339811;26;20376;-69
2024/04/11 06:35:47;;;;;;;;;;;;;;;-144.99;80.94;52446.06;5340562;26;19930;-68
2024/04/11 06:38:16;;;;;;;;;;;;;;;-144.99;82.29;52452.16;5339896;26;19930;-70
2024/04/11 06:40:43;;;;;;;;;;;;;;;-144.99;84.64;52448.09;5340356;26;19954;-68
2024/04/11 06:43:13;;;;;;;;;;;;;;;-144.99;85.39;52435.88;5339902;26;20260;-68
2024/04/11 06:45:39;;;;;;;;;;;;;;;-144.99;86.93;52439.94;5339584;26;20008;-68
2024/04/11 06:48:11;;;;;;;;;;;;;;;-144.99;88.26;52464.41;5338947;26;19937;-68
2024/04/11 06:50:38;;;;;;;;;;;;;;;-144.99;88.63;52407.31;5339584;26;20008;-68
2024/04/11 06:53:08;;;;;;;;;;;;;;;-144.99;89.64;52423.63;5341983;26;20031;-67
2024/04/11 06:55:34;;;;;;;;;;;;;;;-144.99;90.79;52419.56;5342871;26;19937;-68
2024/04/11 06:58:06;;;;;;;;;;;;;;;-144.99;91.30;52423.63;5340939;26;20299;-68
2024/04/11 07:00:36;;;;;;;;;;;;;;;-144.99;91.91;52435.88;5342683;26;19929;-69
2024/04/11 07:03:13;;;;;;;;;;;;;;;-144.99;92.49;52454.22;5342556;26;20362;-69
2024/04/11 07:05:50;;;;;;;;;;;;;;;-144.99;93.37;52464.41;5342972;26;19930;-67
2024/04/11 07:08:19;;;;;;;;;;;;;;;-144.99;94.25;52439.94;5342783;26;20443;-68
2024/04/11 07:10:46;;;;;;;;;;;;;;;-144.99;94.75;52468.47;5342599;26;19930;-67
2024/04/11 07:13:14;;;;;;;;;;;;;;;-144.99;95.82;52431.78;5342502;26;20442;-68
2024/04/11 07:15:42;;;;;;;;;;;;;;;-144.99;95.35;52492.94;5342410;26;19995;-68
2024/04/11 07:18:14;;;;;;;;;;;;;;;-144.99;95.53;52407.31;5341779;26;19978;-68
2024/04/11 07:20:46;;;;;;;;;;;;;;;-144.99;96.17;52452.16;5340801;26;20260;-68
2024/04/11 07:23:17;;;;;;;;;;;;;;;-144.99;96.99;52452.16;5342082;26;20269;-69
2024/04/11 07:25:43;;;;;;;;;;;;;;;-144.99;97.46;52490.91;5342869;26;19937;-68
2024/04/11 07:28:12;;;;;;;;;;;;;;;-144.99;97.98;52454.22;5341676;26;19930;-68
2024/04/11 07:30:41;;;;;;;;;;;;;;;-144.99;98.51;52431.78;5342409;26;19949;-67
2024/04/11 07:33:12;;;;;;;;;;;;;;;-144.99;98.51;52454.22;5341895;26;19942;-67
2024/04/11 07:35:39;;;;;;;;;;;;;;;-144.99;99.34;52474.59;5342529;26;19945;-68
2024/04/11 07:38:08;;;;;;;;;;;;;;;-144.99;100.00;52419.56;5341571;26;19930;-67
2024/04/11 07:40:45;;;;;;;;;;;;;;;-144.99;100.00;52419.56;5330873;26;19930;-69
2024/04/11 07:43:14;;;;;;;;;;;;;;;-144.99;100.00;52468.47;5342027;26;19941;-67
2024/04/11 07:45:40;;;;;;;;;;;;;;;-144.99;100.00;52395.09;5342641;26;19934;-68
2024/04/11 07:48:12;;;;;;;;;;;;;;;-144.99;100.00;52431.78;5341759;26;19942;-68
2024/04/11 07:50:38;;;;;;;;;;;;;;;-144.99;100.00;52458.28;5342735;26;20377;-67
2024/04/11 07:53:14;;;;;;;;;;;;;;;-144.99;100.00;52456.25;5341918;26;19934;-68
2024/04/11 07:55:44;;;;;;;;;;;;;;;-144.99;100.00;52423.63;5342987;26;19962;-67
2024/04/11 07:58:18;;;;;;;;;;;;;;;-144.99;100.00;52444.03;5340824;26;19930;-68
2024/04/11 08:00:47;;;;;;;;;;;;;;;-144.99;100.00;52395.09;5342253;26;19934;-68
2024/04/11 08:03:17;;;;;;;;;;;;;;;-144.99;100.00;52446.06;5337372;26;19929;-68
2024/04/11 08:05:43;;;;;;;;;;;;;;;-144.99;100.00;52407.31;5342206;26;19953;-68
2024/04/11 08:08:12;;;;;;;;;;;;;;;-144.99;100.00;52382.88;5340613;26;20302;-68
2024/04/11 08:10:38;;;;;;;;;;;;;;;-144.99;100.00;52403.25;5341480;26;19930;-67
2024/04/11 08:13:10;;;;;;;;;;;;;;;-144.99;100.00;52382.88;5341634;26;20159;-68
2024/04/11 08:15:36;;;;;;;;;;;;;;;-144.99;100.00;52448.09;5341972;26;20364;-68
2024/04/11 08:18:06;;;;;;;;;;;;;;;-144.99;100.00;52431.78;5340749;26;19966;-68
2024/04/11 08:20:32;;;;;;;;;;;;;;;-144.99;100.00;52421.59;5341801;26;19930;-68
2024/04/11 08:23:01;;;;;;;;;;;;;;;-144.99;100.00;52399.19;5341709;26;19930;-67
2024/04/11 08:25:27;;;;;;;;;;;;;;;-144.99;100.00;52427.72;5341541;26;19930;-68
2024/04/11 08:27:57;;;;;;;;;;;;;;;-144.99;100.00;52391.03;5340590;26;20008;-69
2024/04/11 08:30:25;;;;;;;;;;;;;;;-144.99;100.00;52427.72;5341324;26;19985;-69
2024/04/11 08:32:55;;;;;;;;;;;;;;;-144.99;100.00;52395.09;5340701;26;19930;-69
2024/04/11 08:35:21;;;;;;;;;;;;;;;-144.99;100.00;52417.53;5341140;26;19965;-69
2024/04/11 08:37:51;;;;;;;;;;;;;;;-144.99;100.00;52403.25;5340686;26;19938;-69
2024/04/11 08:40:17;;;;;;;;;;;;;;;-144.99;100.00;52409.38;5341077;26;19961;-68
2024/04/11 08:42:47;;;;;;;;;;;;;;;-144.99;100.00;52403.25;5340769;26;20390;-68
2024/04/11 08:45:13;;;;;;;;;;;;;;;-144.99;100.00;52395.09;5341133;26;20368;-69
2024/04/11 08:47:46;;;;;;;;;;;;;;;-144.99;100.00;52415.47;5340640;26;19937;-69
2024/04/11 08:50:12;;;;;;;;;;;;;;;-144.99;100.00;52423.63;5340880;26;19962;-68
2024/04/11 08:52:42;;;;;;;;;;;;;;;-144.99;100.00;52415.47;5340789;26;20383;-68
2024/04/11 08:55:10;;;;;;;;;;;;;;;-144.99;100.00;52448.09;5336335;26;19930;-69
2024/04/11 08:57:39;;;;;;;;;;;;;;;-144.99;100.00;52433.81;5340819;26;19930;-69
2024/04/11 09:00:12;;;;;;;;;;;;;;;-144.99;100.00;52421.59;5341373;26;19930;-68
2024/04/11 09:02:41;;;;;;;;;;;;;;;-144.99;100.00;52452.16;5340748;26;19930;-68
2024/04/11 09:05:14;;;;;;;;;;;;;;;-144.99;100.00;52415.47;5341577;26;20272;-68
2024/04/11 09:07:44;;;;;;;;;;;;;;;-144.99;100.00;52411.41;5341418;26;19981;-69
2024/04/11 09:10:12;;;;;;;;;;;;;;;-144.99;100.00;52386.94;5341808;26;19937;-68
2024/04/11 09:12:42;;;;;;;;;;;;;;;-144.99;100.00;52468.47;5341911;26;20376;-68
2024/04/11 09:15:09;;;;;;;;;;;;;;;-144.99;100.00;52399.19;5341912;26;20013;-68
2024/04/11 09:17:40;;;;;;;;;;;;;;;-144.99;100.00;52370.63;5340452;26;19936;-67
2024/04/11 09:20:12;;;;;;;;;;;;;;;-144.99;100.00;52391.03;5341262;26;19930;-68
2024/04/11 09:22:50;;;;;;;;;;;;;;;-144.99;100.00;52421.59;5341062;26;19930;-68
2024/04/11 09:25:17;;;;;;;;;;;;;;;-144.99;100.00;52435.88;5340754;26;19982;-67
2024/04/11 09:27:50;;;;;;;;;;;;;;;-144.99;100.00;52452.16;5340995;26;20327;-68
2024/04/11 09:30:20;;;;;;;;;;;;;;;-144.99;100.00;52448.09;5340898;26;20163;-68
2024/04/11 09:32:49;;;;;;;;;;;;;;;-144.99;100.00;52362.50;5340338;26;19930;-68
2024/04/11 09:35:20;;;;;;;;;;;;;;;-144.99;100.00;52415.47;5340557;26;19938;-69
2024/04/11 09:37:54;;;;;;;;;;;;;;;-144.99;100.00;52419.56;5340720;26;19930;-68
2024/04/11 09:40:26;;;;;;;;;;;;;;;-144.99;100.00;52423.63;5340226;26;19945;-67
2024/04/11 09:43:03;;;;;;;;;;;;;;;-144.99;100.00;52425.66;5340675;26;20233;-68
2024/04/11 09:45:32;;;;;;;;;;;;;;;-144.99;100.00;52407.31;5340949;26;19950;-68
2024/04/11 09:48:02;;;;;;;;;;;;;;;-144.99;100.00;52419.56;5339685;26;19949;-69
2024/04/11 09:50:30;;;;;;;;;;;;;;;-144.99;100.00;52411.41;5339968;26;19937;-69
2024/04/11 09:53:00;;;;;;;;;;;;;;;-144.99;100.00;52407.31;5340197;26;19930;-68
2024/04/11 09:55:33;;;;;;;;;;;;;;;-144.99;100.00;52382.88;5340134;26;20383;-67
2024/04/11 09:58:04;;;;;;;;;;;;;;;-144.99;100.00;52460.31;5339441;26;19941;-67
2024/04/11 10:00:48;;;;;;;;;;;;;;;-144.99;100.00;52388.97;5326257;26;19933;-67
2024/04/11 10:03:18;;;;;;;;;;;;;;;-144.99;100.00;52448.09;5336344;26;19934;-68
2024/04/11 10:05:50;;;;;;;;;;;;;;;-144.99;100.00;52374.72;5340227;26;19930;-68
2024/04/11 10:08:27;;;;;;;;;;;;;;;-144.99;100.00;52407.31;5340065;26;19958;-68
2024/04/11 10:10:54;;;;;;;;;;;;;;;-144.99;100.00;52386.94;5339915;26;20042;-70
2024/04/11 10:13:24;;;;;;;;;;;;;;;-144.99;100.00;52386.94;5339938;26;19930;-68
2024/04/11 10:15:57;;;;;;;;;;;;;;;-144.99;100.00;52378.78;5339941;26;19930;-68
2024/04/11 10:18:41;;;;;;;;;;;;;;;-144.99;100.00;52423.63;5339545;26;19930;-68
2024/04/11 10:21:12;;;;;;;;;;;;;;;-144.99;100.00;52413.44;5339218;26;19941;-69
2024/04/11 10:23:42;;;;;;;;;;;;;;;-144.99;100.00;52386.94;5340026;26;20312;-69
2024/04/11 10:26:08;;;;;;;;;;;;;;;-144.99;100.00;52386.94;5339596;26;19930;-68
2024/04/11 10:28:41;;;;;;;;;;;;;;;-144.99;100.00;52407.31;5340269;26;19930;-68
2024/04/11 10:31:08;;;;;;;;;;;;;;;-144.99;100.00;52391.03;5340821;26;20002;-69
2024/04/11 10:33:47;;;;;;;;;;;;;;;-144.99;100.00;52403.25;5340601;26;20536;-67
2024/04/11 10:36:17;;;;;;;;;;;;;;;-144.99;100.00;52350.25;5340822;26;19930;-67
2024/04/11 10:38:47;;;;;;;;;;;;;;;-144.99;100.00;52403.25;5339597;26;21389;-67
2024/04/11 10:41:19;;;;;;;;;;;;;;;-144.99;99.99;52374.72;5339845;26;19937;-67
2024/04/11 10:43:49;;;;;;;;;;;;;;;-144.99;99.33;52374.72;5339901;26;19937;-67
2024/04/11 10:46:20;;;;;;;;;;;;;;;-144.99;99.42;52395.09;5340132;26;20432;-68
2024/04/11 10:48:52;;;;;;;;;;;;;;;-144.99;99.20;52350.25;5340106;26;19938;-67
2024/04/11 10:51:20;;;;;;;;;;;;;;;-144.99;98.93;52399.19;5339518;26;19930;-67
2024/04/11 10:53:54;;;;;;;;;;;;;;;-144.99;98.96;52366.56;5415478;21;19929;-70
2024/04/11 10:56:21;;;;;;;;;;;;;;;-144.99;98.31;52415.47;5431060;26;19928;-70
2024/04/11 10:58:50;;;;;;;;;;;;;;;-144.99;98.73;52366.56;5420368;26;19929;-70
2024/04/11 11:01:17;;;;;;;;;;;;;;;-144.99;98.65;52374.72;5433962;26;19929;-70
2024/04/11 11:03:50;;;;;;;;;;;;;;;-144.99;97.17;52346.19;5441728;26;20310;-70
2024/04/11 11:06:24;;;;;;;;;;;;;;;-144.99;96.76;52358.41;5445573;26;19928;-70
2024/04/11 11:08:55;;;;;;;;;;;;;;;-144.99;95.30;52321.72;5444755;26;19997;-70
2024/04/11 11:11:25;;;;;;;;;;;;;;;-144.99;95.17;52342.09;5431949;26;19928;-72
2024/04/11 11:13:55;;;;;;;;;;;;;;;-144.99;92.72;52321.72;5422640;26;19935;-71
2024/04/11 11:16:21;;;;;;;;;;;;;;;-144.99;92.83;52374.72;5436650;26;19968;-71
2024/04/11 11:18:51;;;;;;;;;;;;;;;-144.99;92.73;52338.03;5443860;26;19935;-70
2024/04/11 11:21:19;;;;;;;;;;;;;;;-144.99;92.55;52354.34;5431417;26;19928;-70
2024/04/11 11:23:54;;;;;;;;;;;;;;;-144.99;93.81;52329.88;5445562;26;19957;-70
2024/04/11 11:26:27;;;;;;;;;;;;;;;-144.99;94.60;52380.84;5441712;26;19928;-70
2024/04/11 11:28:58;;;;;;;;;;;;;;;-144.99;94.55;52366.56;5418580;26;20001;-70
2024/04/11 11:31:31;;;;;;;;;;;;;;;-144.99;93.63;52378.78;5439440;26;19948;-71
2024/04/11 11:33:59;;;;;;;;;;;;;;;-144.99;93.38;52321.72;5444535;26;19937;-70
2024/04/11 11:36:25;;;;;;;;;;;;;;;-144.99;94.24;52358.41;5445811;26;19947;-71
2024/04/11 11:38:54;;;;;;;;;;;;;;;-144.99;93.91;52325.81;5446941;26;20404;-70
2024/04/11 11:41:23;;;;;;;;;;;;;;;-144.99;93.28;52386.94;5438720;26;20342;-69
2024/04/11 11:43:56;;;;;;;;;;;;;;;-144.99;92.12;52362.50;5448576;26;20270;-70
2024/04/11 11:46:29;;;;;;;;;;;;;;;-144.99;92.10;52325.81;5446903;26;19936;-70
2024/04/11 11:48:59;;;;;;;;;;;;;;;-144.99;91.14;52325.81;5436755;26;19929;-71
2024/04/11 11:51:28;;;;;;;;;;;;;;;-144.99;89.99;52386.94;5442684;26;20429;-71
2024/04/11 11:54:00;;;;;;;;;;;;;;;-144.99;90.25;52376.75;5440663;26;20060;-69
2024/04/11 11:56:32;;;;;;;;;;;;;;;-144.99;91.32;52391.03;5431015;26;19933;-70
2024/04/11 11:59:04;;;;;;;;;;;;;;;-144.99;91.22;52378.78;5427727;26;19929;-70
2024/04/11 12:01:35;;;;;;;;;;;;;;;-144.99;91.34;52374.72;5438767;26;19928;-71
2024/04/11 12:04:07;;;;;;;;;;;;;;;-144.99;91.70;52348.22;5425334;26;19936;-70
2024/04/11 12:06:34;;;;;;;;;;;;;;;-144.99;91.84;52358.41;5427522;26;20250;-70
2024/04/11 12:09:10;;;;;;;;;;;;;;;-144.99;91.37;52366.56;5440261;26;19929;-70
2024/04/11 12:11:53;;;;;;;;;;;;;;;-144.99;92.45;52374.72;5436312;26;19935;-69
2024/04/11 12:14:28;;;;;;;;;;;;;;;-144.99;91.79;52346.19;5444123;26;19994;-72
2024/04/11 12:16:56;;;;;;;;;;;;;;;-144.99;92.46;52329.88;5435759;26;19936;-71
2024/04/11 12:19:28;;;;;;;;;;;;;;;-144.99;92.19;52374.72;5432522;26;19932;-70
2024/04/11 12:21:54;;;;;;;;;;;;;;;-144.99;92.47;52338.03;5435689;26;19944;-73
2024/04/11 12:24:23;;;;;;;;;;;;;;;-144.99;93.75;52370.63;5440124;26;20278;-71
2024/04/11 12:26:52;;;;;;;;;;;;;;;-144.99;93.36;52378.78;5448730;26;19928;-71
2024/04/11 12:29:21;;;;;;;;;;;;;;;-144.99;93.92;52382.88;5433757;26;20301;-70
2024/04/11 12:31:48;;;;;;;;;;;;;;;-144.99;93.96;52348.22;5440611;26;19946;-72
2024/04/11 12:34:16;;;;;;;;;;;;;;;-144.99;93.76;52403.25;5450356;26;20254;-70
2024/04/11 12:36:56;;;;;;;;;;;;;;;-144.99;93.71;52415.47;5434755;26;20475;-70